Cedar Springs, MI (49319)

3:17 PM EDT on March 28, 2017 (GMT -0400)
SE Cedar Springs | | Change Station

Elev 865 ft 43.19 °N, 85.51 °W | Updated 7 seconds ago

Mostly Cloudy
Mostly Cloudy
46.1 °F
Feels Like 46 °F
N
0.0
Wind Variable Wind from SSW
Gusts 6.0 mph

Today
High -- | Low -- °F
--% Chance of Precip.
Yesterday
High -- | Low -- °F
Precip. -- in
Pressure 30.12 in
Visibility 10.0 miles
Clouds Overcast 1900 ft
Windchill 46 °F
Dew Point 39 °F
Humidity 77%
Rainfall 0.00 in
Snow Depth Not available.
7:30 AM 8:04 PM
New Moon, 1% visible
METAR KGRR 281853Z 07009KT 10SM OVC019 08/04 A3011 RMK AO2 SLP200 T00830044
Pressure 30.12 in
Visibility 10.0 miles
Clouds Overcast 1900 ft
Windchill 46 °F
Dew Point 39 °F
Humidity 77%
Rainfall 0.00 in
Snow Depth Not available.
7:30 AM 8:04 PM
New Moon, 1% visible
METAR KGRR 281853Z 07009KT 10SM OVC019 08/04 A3011 RMK AO2 SLP200 T00830044

Get Severe Weather Alerts

Thanks for signing up!

Be on the lookout for a verification email in your inbox.

You'll start receiving the daily forecast at 8 AM.

×

10-Day Weather Forecast

Almanac

Astronomy

Mar. 28, 2017 Rise Set
Actual Time
Civil Twilight
Nautical Twilight
Astronomical Twilight
Moon
Length of Visible Light
Length of Day
Tomorrow will be .
, % of the Moon is Illuminated

Today's Extremes

State Highs State Lows

Community

WunderPhotos

Upload Photos

1,962,540 photos uploaded!

WunderBlog® & News

Nearby

Air Quality

  Air Quality AQ Index Pollutant
Not available.

Snow Depth

Station Depth Elevation

Earthquake Activity

City Distance Mag. Time & Date
Minimum magnitude displayed is 2.5.

Earthquake Activity

City Distance Mag. Time & Date
Minimum magnitude displayed is 2.5.

Coastal Water Temperatures

Place Temperature

Stations

Nearby Weather Stations

Station Location Temp. Windchill Dew Point Humidity Wind Precip. Elev Updated Type
                   

Watches & Warnings

There are currently no watches in effect.